Birch, Wisconsin
Current Conditions -  °F | °C
As of 12:35 AM on Thursday 27 Nov 2014 (Local Time) from KTKV Reporting Station
Light Snow Light Snow  
Wind Chill: 17°   Ceiling: 1100
Heat Index: 17°   Visibility: 2mi
Dew Point: 14°   Wind: 0mph
Humidity: 89%   Direction: NA
Pressure: 30.21"   Gusts: NA
Location:  45.3496°N, 89.6689°W
Report Text: KTKV 270635Z AUTO 00000KT 2SM -SN BKN011 OVC018 M08/M10 A3021 RMK AO2 T10851100
Loading
Personal Weather Stations






























Interactive Weather Map New forecast layout! Learn more

10-Day Weather Forecast

Advertisements
Track Severe Weather on mobile